createdAt,value
2023-04-22T01:06:36.938Z,100794.31
2023-04-22T01:17:29.691Z,100793.34
2023-04-22T02:36:27.951Z,100807.50
2023-04-22T03:41:19.202Z,100850.75
2023-04-22T05:16:30.318Z,100932.69
2023-04-22T05:38:42.074Z,100932.22
2023-04-22T06:07:21.699Z,100978.03
2023-04-22T07:37:02.334Z,101069.44
2023-04-22T07:39:48.312Z,101083.56
2023-04-22T07:42:17.913Z,101081.06
2023-04-22T07:56:41.753Z,101082.91
2023-04-22T08:00:04.710Z,101085.66
2023-04-22T08:02:44.804Z,101072.06
2023-04-22T08:05:18.352Z,101076.66
2023-04-22T08:07:57.809Z,101082.13
2023-04-22T08:10:29.493Z,101072.78
2023-04-22T08:12:57.213Z,101079.56
2023-04-22T08:15:32.053Z,101073.13
2023-04-22T08:18:01.356Z,101084.53
2023-04-22T08:20:30.233Z,101081.47
2023-04-22T08:23:01.198Z,101073.66
2023-04-22T08:25:32.858Z,101085.84
2023-04-22T08:28:04.056Z,101072.91
2023-04-22T08:30:35.908Z,101086.16
2023-04-22T08:33:05.037Z,101074.91
2023-04-22T08:35:38.005Z,101074.00
2023-04-22T08:38:12.158Z,101085.81
2023-04-22T08:40:51.194Z,101088.00
2023-04-22T08:43:18.877Z,101086.09
2023-04-22T08:45:48.218Z,101073.09
2023-04-22T08:48:17.308Z,101094.97
2023-04-22T08:50:49.756Z,101092.31
2023-04-22T08:53:17.475Z,101095.91
2023-04-22T09:20:32.884Z,101105.34
2023-04-22T09:23:04.789Z,101099.22
2023-04-22T09:25:36.527Z,101099.00
2023-04-22T11:39:09.933Z,101166.69
2023-04-22T11:41:37.778Z,101186.00
2023-04-22T11:44:06.570Z,101171.22
2023-04-22T12:40:31.537Z,101191.03
2023-04-22T12:43:17.420Z,101166.81
